createdAt,value
2022-10-19T00:02:22.910Z,69.93
2022-10-19T00:04:49.523Z,69.78
2022-10-19T00:07:16.077Z,70.09
2022-10-19T00:09:49.346Z,70.80
2022-10-19T00:12:15.922Z,70.61
2022-10-19T00:14:42.508Z,71.36
2022-10-19T00:17:09.048Z,71.08
2022-10-19T00:19:35.568Z,70.76
2022-10-19T00:22:02.601Z,71.41
2022-10-19T00:24:29.435Z,71.34
2022-10-19T00:26:56.088Z,70.66
2022-10-19T00:29:22.717Z,71.39
2022-10-19T00:31:50.533Z,70.75
2022-10-19T00:34:17.473Z,70.53
2022-10-19T00:36:43.969Z,70.00
2022-10-19T00:39:15.592Z,69.63
2022-10-19T00:41:43.602Z,69.48
2022-10-19T00:44:10.040Z,69.20
2022-10-19T00:46:41.741Z,69.42
2022-10-19T00:49:15.757Z,69.39
2022-10-19T00:51:45.655Z,69.56
2022-10-19T00:54:12.736Z,69.55
2022-10-19T00:56:41.739Z,68.88
2022-10-19T00:59:09.050Z,69.56
2022-10-19T01:01:35.785Z,68.85
2022-10-19T01:04:03.121Z,68.57
2022-10-19T01:06:30.128Z,68.57
2022-10-19T01:08:56.829Z,68.64
2022-10-19T01:11:32.771Z,68.64
2022-10-19T01:14:17.772Z,69.46
2022-10-19T01:16:53.215Z,68.82
2022-10-19T01:20:08.027Z,69.02
2022-10-19T01:23:06.316Z,69.83
2022-10-19T01:25:55.919Z,68.98
2022-10-19T01:28:47.713Z,68.67
2022-10-19T01:31:20.512Z,68.70
2022-10-19T01:33:53.215Z,68.60
2022-10-19T01:36:38.153Z,68.71
2022-10-19T01:39:37.463Z,68.59
2022-10-19T01:42:44.649Z,67.76
2022-10-19T01:45:21.209Z,68.03
2022-10-19T01:47:59.526Z,67.92
2022-10-19T01:50:38.485Z,67.99
2022-10-19T01:53:07.686Z,68.06
2022-10-19T01:55:34.967Z,68.37
2022-10-19T01:58:09.845Z,68.28
2022-10-19T02:00:39.110Z,68.42
2022-10-19T02:03:05.911Z,68.45
2022-10-19T02:05:33.847Z,68.41
2022-10-19T02:08:05.010Z,68.48
2022-10-19T02:10:32.615Z,68.85
2022-10-19T02:12:59.496Z,69.16
2022-10-19T02:15:26.839Z,68.81
2022-10-19T02:17:57.280Z,68.45
2022-10-19T02:20:23.939Z,68.61
2022-10-19T02:22:50.894Z,68.64
2022-10-19T02:25:17.585Z,68.67
2022-10-19T02:27:44.611Z,68.40
2022-10-19T02:30:13.196Z,68.68
2022-10-19T02:32:39.965Z,69.02
2022-10-19T02:35:06.765Z,69.12
2022-10-19T02:37:33.533Z,68.94
2022-10-19T02:40:00.633Z,70.15
2022-10-19T02:42:36.096Z,69.31
2022-10-19T02:45:17.651Z,69.21
2022-10-19T02:47:48.507Z,69.07
2022-10-19T02:50:15.467Z,69.05
2022-10-19T02:52:42.100Z,68.99
2022-10-19T02:55:09.327Z,69.52
2022-10-19T02:57:36.521Z,69.30
2022-10-19T03:00:05.927Z,69.84
2022-10-19T03:02:32.431Z,70.33
2022-10-19T03:04:58.962Z,70.11
2022-10-19T03:07:25.625Z,70.21
2022-10-19T03:09:52.351Z,70.76
2022-10-19T03:12:18.998Z,70.91
2022-10-19T03:14:45.604Z,71.16
2022-10-19T03:17:12.385Z,71.15
2022-10-19T03:19:39.101Z,70.89
2022-10-19T03:22:06.350Z,70.87
2022-10-19T03:24:32.933Z,70.93
2022-10-19T03:26:59.497Z,70.81
2022-10-19T03:29:26.045Z,71.01
2022-10-19T03:31:52.657Z,71.12
2022-10-19T03:34:19.222Z,70.61
2022-10-19T03:36:45.862Z,70.85
2022-10-19T03:39:13.981Z,70.92
2022-10-19T03:41:40.923Z,70.70
2022-10-19T03:44:09.332Z,70.71
2022-10-19T03:46:36.444Z,70.93
2022-10-19T03:49:04.225Z,70.97
2022-10-19T03:51:31.087Z,70.78
2022-10-19T03:53:59.891Z,71.50
2022-10-19T03:56:28.238Z,71.23
2022-10-19T03:58:55.899Z,71.02
2022-10-19T04:01:31.323Z,70.56
2022-10-19T04:04:00.537Z,70.36
2022-10-19T04:06:33.247Z,70.28
2022-10-19T04:09:00.144Z,70.24
2022-10-19T04:11:28.885Z,69.96
2022-10-19T04:13:56.392Z,69.82
2022-10-19T04:16:24.439Z,69.86
2022-10-19T04:18:51.280Z,69.83
2022-10-19T04:21:25.348Z,69.57
2022-10-19T04:23:52.387Z,69.43
2022-10-19T04:26:19.866Z,69.40
2022-10-19T04:28:46.416Z,69.93
2022-10-19T04:31:13.099Z,70.29
2022-10-19T04:33:40.529Z,70.21
2022-10-19T04:36:09.335Z,70.61
2022-10-19T04:38:36.694Z,70.02
2022-10-19T04:41:04.322Z,69.87
2022-10-19T04:43:31.247Z,69.95
2022-10-19T04:46:02.404Z,69.70
2022-10-19T04:48:28.940Z,70.20
2022-10-19T04:50:55.904Z,70.99
2022-10-19T04:55:49.112Z,70.58
2022-10-19T04:58:15.689Z,70.63
2022-10-19T05:00:42.328Z,70.35
2022-10-19T05:03:09.203Z,70.57
2022-10-19T05:05:35.807Z,70.51
2022-10-19T05:08:02.542Z,70.27
2022-10-19T05:10:29.309Z,69.67
2022-10-19T05:12:55.916Z,69.51
2022-10-19T05:15:22.943Z,70.15
2022-10-19T05:17:51.324Z,70.10
2022-10-19T05:20:17.859Z,70.04
2022-10-19T05:22:44.355Z,71.05
2022-10-19T05:25:10.915Z,70.57
2022-10-19T05:27:37.511Z,70.10
2022-10-19T05:30:06.377Z,69.62
2022-10-19T05:32:32.955Z,69.85
2022-10-19T05:34:59.561Z,70.47
2022-10-19T05:37:26.192Z,69.80
2022-10-19T05:39:54.377Z,70.55
2022-10-19T05:42:20.983Z,70.85
2022-10-19T05:44:47.639Z,71.08
2022-10-19T05:47:14.419Z,72.19
2022-10-19T05:49:41.071Z,71.34
2022-10-19T05:52:07.593Z,71.04
2022-10-19T05:54:35.927Z,71.05
2022-10-19T05:57:02.639Z,71.86
2022-10-19T05:59:29.232Z,72.02
2022-10-19T06:01:56.107Z,72.01
2022-10-19T06:04:22.698Z,71.49
2022-10-19T06:06:49.358Z,72.05
2022-10-19T06:09:16.076Z,72.27
2022-10-19T06:11:43.380Z,71.97
2022-10-19T06:14:14.725Z,72.58
2022-10-19T06:16:41.553Z,72.57
2022-10-19T06:19:08.162Z,71.86
2022-10-19T06:21:34.683Z,72.17
2022-10-19T06:24:04.956Z,71.71
2022-10-19T06:26:33.749Z,71.89
2022-10-19T06:29:01.399Z,71.46
2022-10-19T06:31:33.043Z,71.67
2022-10-19T06:33:59.799Z,71.20
2022-10-19T06:36:28.797Z,71.07
2022-10-19T06:38:56.540Z,71.27
2022-10-19T06:41:23.205Z,70.88
2022-10-19T06:43:51.553Z,70.55
2022-10-19T06:46:21.983Z,70.51
2022-10-19T06:48:59.924Z,70.23
2022-10-19T06:51:29.003Z,69.82
2022-10-19T06:53:57.193Z,69.57
2022-10-19T06:56:24.768Z,69.68
2022-10-19T06:58:51.970Z,70.02
2022-10-19T07:01:18.677Z,70.59
2022-10-19T07:03:45.436Z,71.30
2022-10-19T07:06:12.954Z,71.28
2022-10-19T07:08:40.529Z,71.70
2022-10-19T07:11:09.858Z,72.28
2022-10-19T07:13:36.825Z,72.32
2022-10-19T07:16:08.895Z,71.01
2022-10-19T07:18:36.835Z,70.87
2022-10-19T07:21:06.295Z,70.98
2022-10-19T07:23:34.391Z,71.14
2022-10-19T07:26:13.737Z,70.29
2022-10-19T07:28:42.009Z,70.17
2022-10-19T07:31:11.054Z,69.43
2022-10-19T07:33:37.711Z,68.76
2022-10-19T07:36:06.826Z,68.77
2022-10-19T07:38:33.992Z,68.45
2022-10-19T07:41:01.827Z,68.68
2022-10-19T07:43:28.344Z,68.52
2022-10-19T07:46:04.720Z,67.13
2022-10-19T07:48:31.747Z,66.44
2022-10-19T07:51:04.220Z,66.11
2022-10-19T07:53:30.865Z,66.08
2022-10-19T07:56:03.908Z,65.67
2022-10-19T07:58:30.516Z,65.67
2022-10-19T08:01:06.153Z,65.38
2022-10-19T08:06:20.502Z,65.11
2022-10-19T08:08:47.877Z,64.67
2022-10-19T08:11:20.696Z,65.21
2022-10-19T08:13:47.605Z,64.29
2022-10-19T08:16:20.971Z,65.26
2022-10-19T08:18:47.611Z,64.72
2022-10-19T08:21:14.155Z,64.55
2022-10-19T08:23:41.417Z,64.04
2022-10-19T08:26:08.375Z,63.84
2022-10-19T08:28:34.926Z,63.60
2022-10-19T08:31:10.243Z,65.21
2022-10-19T08:33:36.801Z,64.34
2022-10-19T08:36:10.150Z,64.39
2022-10-19T08:38:37.385Z,63.82
2022-10-19T08:41:26.187Z,63.80
2022-10-19T08:44:26.916Z,63.42
2022-10-19T08:47:02.668Z,64.54
2022-10-19T08:49:30.807Z,63.21
2022-10-19T08:52:29.593Z,63.88
2022-10-19T08:55:01.092Z,63.14
2022-10-19T08:57:52.008Z,63.21
2022-10-19T09:00:43.684Z,62.94
2022-10-19T09:03:37.811Z,63.09
2022-10-19T09:06:26.340Z,62.79
2022-10-19T09:08:57.297Z,63.76
2022-10-19T09:11:27.483Z,63.37
2022-10-19T09:14:06.267Z,63.05
2022-10-19T09:16:34.935Z,62.45
2022-10-19T09:19:02.727Z,61.99
2022-10-19T09:21:45.998Z,61.38
2022-10-19T09:24:23.016Z,61.07
2022-10-19T09:26:53.675Z,61.72
2022-10-19T09:29:35.942Z,61.59
2022-10-19T09:32:05.341Z,61.57
2022-10-19T09:34:38.511Z,62.37
2022-10-19T09:37:05.120Z,61.03
2022-10-19T09:39:32.047Z,61.03
2022-10-19T09:42:33.401Z,60.54
2022-10-19T09:45:02.159Z,61.43
2022-10-19T09:47:35.694Z,59.87
2022-10-19T09:50:21.698Z,59.58
2022-10-19T09:52:52.338Z,59.62
2022-10-19T09:55:20.876Z,59.12
2022-10-19T09:57:49.379Z,59.29
2022-10-19T10:00:24.705Z,58.75
2022-10-19T10:02:53.568Z,58.92
2022-10-19T10:05:25.382Z,59.48
2022-10-19T10:07:54.723Z,59.73
2022-10-19T10:10:28.174Z,59.39
2022-10-19T10:12:59.127Z,59.57
2022-10-19T10:15:29.303Z,59.30
2022-10-19T10:17:57.194Z,60.34
2022-10-19T10:20:32.163Z,58.86
2022-10-19T10:23:00.326Z,58.54
2022-10-19T10:25:36.076Z,58.58
2022-10-19T10:28:18.045Z,57.80
2022-10-19T10:30:46.152Z,57.67
2022-10-19T10:33:27.023Z,58.73
2022-10-19T10:36:07.756Z,56.85
2022-10-19T10:38:40.558Z,58.15
2022-10-19T10:41:13.164Z,56.60
2022-10-19T10:44:00.982Z,56.14
2022-10-19T10:46:36.367Z,55.67
2022-10-19T10:49:07.365Z,56.08
2022-10-19T10:51:36.940Z,56.91
2022-10-19T10:54:19.374Z,57.74
2022-10-19T10:57:03.031Z,57.61
2022-10-19T10:59:55.667Z,58.04
2022-10-19T11:02:30.818Z,57.52
2022-10-19T11:05:12.092Z,57.66
2022-10-19T11:07:43.112Z,57.77
2022-10-19T11:10:24.642Z,57.59
2022-10-19T11:13:05.036Z,57.65
2022-10-19T11:15:33.626Z,57.66
2022-10-19T11:18:11.704Z,58.74
2022-10-19T11:20:43.275Z,58.58
2022-10-19T11:23:35.604Z,58.56
2022-10-19T11:26:05.111Z,59.35
2022-10-19T11:28:48.677Z,58.39
2022-10-19T11:31:19.508Z,58.46
2022-10-19T11:34:00.341Z,59.10
2022-10-19T11:36:30.292Z,59.13
2022-10-19T11:39:39.025Z,59.90
2022-10-19T11:42:11.827Z,60.89
2022-10-19T11:44:54.964Z,60.79
2022-10-19T11:47:31.617Z,61.39
2022-10-19T11:50:13.365Z,61.99
2022-10-19T11:53:06.243Z,60.47
2022-10-19T11:55:44.140Z,60.34
2022-10-19T11:58:34.658Z,60.78
2022-10-19T12:01:16.732Z,60.58
2022-10-19T12:04:09.386Z,59.76
2022-10-19T12:06:35.821Z,59.18
2022-10-19T12:09:20.752Z,58.82
2022-10-19T12:12:07.592Z,60.65
2022-10-19T12:14:39.355Z,60.92
2022-10-19T12:17:09.448Z,59.94
2022-10-19T12:19:48.353Z,60.41
2022-10-19T12:22:22.477Z,61.08
2022-10-19T12:24:50.764Z,60.23
2022-10-19T12:27:18.638Z,61.33
2022-10-19T12:29:47.967Z,60.70
2022-10-19T12:32:16.832Z,61.42
2022-10-19T12:35:17.831Z,61.66
2022-10-19T12:37:50.165Z,62.16
2022-10-19T12:40:27.493Z,62.99
2022-10-19T12:43:07.002Z,62.39
2022-10-19T12:46:08.085Z,61.71
2022-10-19T12:48:36.413Z,61.44
2022-10-19T12:51:05.812Z,60.92
2022-10-19T12:53:38.842Z,60.70
2022-10-19T12:56:28.338Z,61.36
2022-10-19T12:59:01.443Z,59.36
2022-10-19T13:01:34.845Z,60.32
2022-10-19T13:11:24.782Z,59.97
2022-10-19T13:14:03.035Z,58.32
2022-10-19T13:16:29.738Z,58.53
2022-10-19T13:18:59.253Z,58.62
2022-10-19T13:21:46.622Z,59.05
2022-10-19T13:27:23.946Z,58.66
2022-10-19T13:29:50.613Z,58.17
2022-10-19T13:32:43.426Z,58.59
2022-10-19T13:35:32.813Z,58.90
2022-10-19T13:38:18.756Z,57.78
2022-10-19T13:40:48.646Z,57.41
2022-10-19T13:43:21.715Z,57.56
2022-10-19T13:46:08.707Z,55.23
2022-10-19T13:49:13.536Z,55.00
2022-10-19T13:51:58.886Z,54.88
2022-10-19T13:54:34.827Z,55.54
2022-10-19T13:57:11.256Z,55.45
2022-10-19T13:59:44.162Z,55.51
2022-10-19T14:02:36.094Z,54.86
2022-10-19T14:05:25.307Z,55.65
2022-10-19T14:08:01.336Z,56.93
2022-10-19T14:10:33.138Z,56.79
2022-10-19T14:13:17.269Z,57.05
2022-10-19T14:16:02.763Z,57.17
2022-10-19T14:18:33.111Z,55.74
2022-10-19T14:21:10.344Z,56.76
2022-10-19T14:23:41.790Z,56.80
2022-10-19T14:26:31.863Z,56.91
2022-10-19T14:28:59.588Z,57.50
2022-10-19T14:31:33.574Z,58.06
2022-10-19T14:34:03.097Z,58.05
2022-10-19T14:36:36.353Z,58.61
2022-10-19T14:39:03.125Z,59.26
2022-10-19T14:41:36.947Z,58.32
2022-10-19T14:44:32.321Z,58.87
2022-10-19T14:47:01.353Z,58.38
2022-10-19T14:49:27.929Z,58.35
2022-10-19T14:52:01.053Z,59.08
2022-10-19T14:54:29.950Z,59.18
2022-10-19T14:57:01.470Z,59.51
2022-10-19T14:59:38.976Z,59.71
2022-10-19T15:02:27.677Z,59.87
2022-10-19T15:04:56.106Z,59.95
2022-10-19T15:07:42.574Z,59.96
2022-10-19T15:10:18.953Z,59.98
2022-10-19T15:12:45.677Z,59.91
2022-10-19T15:15:19.705Z,60.74
2022-10-19T15:17:59.690Z,60.01
2022-10-19T15:20:28.825Z,60.20
2022-10-19T15:22:57.662Z,60.54
2022-10-19T15:25:33.799Z,60.71
2022-10-19T15:28:33.910Z,60.66
2022-10-19T15:31:25.367Z,60.36
2022-10-19T15:33:53.793Z,60.74
2022-10-19T15:36:21.974Z,60.45
2022-10-19T15:39:11.473Z,60.32
2022-10-19T15:41:46.758Z,60.57
2022-10-19T15:44:34.627Z,59.89
2022-10-19T15:47:22.559Z,61.31
2022-10-19T15:49:55.833Z,60.72
2022-10-19T15:52:31.880Z,60.15
2022-10-19T15:54:59.693Z,60.64
2022-10-19T15:57:39.412Z,60.50
2022-10-19T16:00:13.503Z,61.13
2022-10-19T16:02:40.722Z,60.79
2022-10-19T16:07:40.526Z,60.41
2022-10-19T16:10:11.232Z,60.56
2022-10-19T16:12:38.212Z,61.11
2022-10-19T16:15:05.148Z,60.42
2022-10-19T16:17:32.449Z,59.96
2022-10-19T16:19:59.187Z,60.38
2022-10-19T16:22:25.688Z,60.37
2022-10-19T16:24:52.258Z,60.61
2022-10-19T16:27:19.020Z,60.73
2022-10-19T16:29:45.606Z,61.27
2022-10-19T16:32:12.201Z,61.18
2022-10-19T16:34:38.812Z,61.35
2022-10-19T16:37:07.078Z,61.12
2022-10-19T16:39:34.406Z,61.07
2022-10-19T16:42:00.963Z,60.71
2022-10-19T16:44:27.529Z,61.13
2022-10-19T16:46:56.215Z,62.09
2022-10-19T16:49:22.749Z,61.59
2022-10-19T16:51:51.969Z,61.55
2022-10-19T16:54:21.654Z,61.80
2022-10-19T16:56:48.415Z,61.80
2022-10-19T16:59:16.992Z,62.32
2022-10-19T17:01:44.898Z,62.85
2022-10-19T17:04:12.499Z,62.83
2022-10-19T17:06:39.353Z,62.83
2022-10-19T17:11:52.542Z,62.94
2022-10-19T17:14:19.152Z,63.14
2022-10-19T17:16:45.738Z,62.87
2022-10-19T17:19:12.539Z,62.34
2022-10-19T17:21:39.431Z,62.91
2022-10-19T17:24:14.680Z,62.86
2022-10-19T17:26:45.142Z,63.35
2022-10-19T17:29:12.369Z,62.56
2022-10-19T17:31:39.861Z,62.84
2022-10-19T17:34:07.591Z,62.78
2022-10-19T17:36:36.018Z,62.86
2022-10-19T17:39:05.832Z,63.38
2022-10-19T17:41:33.014Z,63.43
2022-10-19T17:44:00.002Z,63.60
2022-10-19T17:46:29.639Z,63.49
2022-10-19T17:48:56.649Z,63.46
2022-10-19T17:51:27.128Z,63.64
2022-10-19T17:53:59.046Z,63.47
2022-10-19T17:56:26.272Z,63.52
2022-10-19T17:58:53.249Z,63.33
2022-10-19T18:01:21.706Z,63.62
2022-10-19T18:03:49.035Z,63.77
2022-10-19T18:06:22.750Z,64.04
2022-10-19T18:08:52.418Z,64.75
2022-10-19T18:11:21.802Z,65.19
2022-10-19T18:13:50.303Z,64.77
2022-10-19T18:16:29.233Z,65.40
2022-10-19T18:18:57.359Z,65.93
2022-10-19T18:21:32.394Z,66.01
2022-10-19T18:24:00.414Z,65.50
2022-10-19T18:26:28.788Z,65.25
2022-10-19T18:28:55.900Z,65.27
2022-10-19T18:31:25.359Z,64.91
2022-10-19T18:34:15.426Z,64.89
2022-10-19T18:36:42.473Z,65.40
2022-10-19T18:39:11.377Z,65.83
2022-10-19T18:41:38.495Z,66.26
2022-10-19T18:44:06.872Z,66.46
2022-10-19T18:46:35.743Z,66.68
2022-10-19T18:49:04.788Z,66.83
2022-10-19T18:51:31.962Z,66.90
2022-10-19T18:53:58.821Z,67.06
2022-10-19T18:56:25.853Z,68.05
2022-10-19T18:58:52.534Z,67.06
2022-10-19T19:01:23.000Z,66.65
2022-10-19T19:03:51.030Z,66.43
2022-10-19T19:06:20.595Z,66.27
2022-10-19T19:08:47.622Z,66.02
2022-10-19T19:11:18.147Z,65.88
2022-10-19T19:13:51.346Z,65.91
2022-10-19T19:16:18.131Z,65.61
2022-10-19T19:18:44.735Z,65.93
2022-10-19T19:21:17.293Z,65.37
2022-10-19T19:23:44.335Z,65.33
2022-10-19T19:26:12.856Z,65.36
2022-10-19T19:28:41.535Z,65.94
2022-10-19T19:31:10.137Z,65.77
2022-10-19T19:33:36.787Z,65.82
2022-10-19T19:36:08.443Z,65.89
2022-10-19T19:38:35.961Z,65.89
2022-10-19T19:41:07.518Z,66.06
2022-10-19T19:43:36.866Z,65.93
2022-10-19T19:46:08.922Z,66.23
2022-10-19T19:48:36.868Z,65.97
2022-10-19T19:51:03.612Z,66.20
2022-10-19T19:53:30.362Z,66.16
2022-10-19T19:55:56.949Z,66.00
2022-10-19T19:58:23.444Z,65.88
2022-10-19T20:00:49.968Z,65.99
2022-10-19T20:03:16.522Z,65.79
2022-10-19T20:05:43.025Z,66.06
2022-10-19T20:08:09.969Z,66.04
2022-10-19T20:10:43.110Z,66.47
2022-10-19T20:13:09.644Z,66.72
2022-10-19T20:15:39.398Z,66.68
2022-10-19T20:18:06.795Z,66.78
2022-10-19T20:20:33.313Z,67.10
2022-10-19T20:22:59.945Z,67.08
2022-10-19T20:25:26.718Z,67.08
2022-10-19T20:27:53.261Z,67.10
2022-10-19T20:30:19.913Z,67.64
2022-10-19T20:32:46.472Z,67.58
2022-10-19T20:35:13.084Z,67.38
2022-10-19T20:37:39.718Z,67.38
2022-10-19T20:40:08.802Z,67.68
2022-10-19T20:42:36.193Z,67.51
2022-10-19T20:45:03.137Z,67.55
2022-10-19T20:47:29.810Z,67.83
2022-10-19T20:49:56.396Z,68.01
2022-10-19T20:52:23.017Z,67.98
2022-10-19T20:54:49.644Z,67.83
2022-10-19T20:57:16.165Z,67.31
2022-10-19T20:59:43.889Z,67.81
2022-10-19T21:02:10.332Z,68.24
2022-10-19T21:04:36.893Z,68.10
2022-10-19T21:07:04.878Z,67.70
2022-10-19T21:09:31.660Z,68.09
2022-10-19T21:11:58.530Z,67.97
2022-10-19T21:14:28.379Z,68.83
2022-10-19T21:16:57.298Z,70.29
2022-10-19T21:19:25.375Z,71.00
2022-10-19T21:21:55.402Z,70.19
2022-10-19T21:24:24.675Z,69.93
2022-10-19T21:29:18.867Z,68.96
2022-10-19T21:31:48.880Z,69.47
2022-10-19T21:34:18.929Z,69.77
2022-10-19T21:36:45.500Z,70.08
2022-10-19T21:39:12.472Z,70.37
2022-10-19T21:41:39.083Z,70.16
2022-10-19T21:44:05.716Z,69.82
2022-10-19T21:46:32.356Z,68.90
2022-10-19T21:48:58.929Z,69.26
2022-10-19T21:51:35.965Z,69.89
2022-10-19T21:54:04.455Z,70.37
2022-10-19T21:56:32.042Z,69.65
2022-10-19T21:58:58.838Z,69.51
2022-10-19T22:01:27.872Z,69.53
2022-10-19T22:03:57.438Z,69.10
2022-10-19T22:06:25.409Z,68.38
2022-10-19T22:08:53.157Z,69.38
2022-10-19T22:11:19.687Z,69.36
2022-10-19T22:13:46.430Z,69.34
2022-10-19T22:16:18.996Z,68.84
2022-10-19T22:18:46.670Z,69.35
2022-10-19T22:21:15.748Z,68.76
2022-10-19T22:23:43.000Z,69.21
2022-10-19T22:26:17.584Z,69.46
2022-10-19T22:28:44.708Z,69.41
2022-10-19T22:31:12.301Z,68.81
2022-10-19T22:33:39.302Z,68.77
2022-10-19T22:36:07.699Z,68.67
2022-10-19T22:38:34.998Z,68.57
2022-10-19T22:41:01.637Z,68.63
2022-10-19T22:43:28.217Z,68.57
2022-10-19T22:45:54.820Z,68.53
2022-10-19T22:48:21.318Z,68.79
2022-10-19T22:50:53.044Z,68.70
2022-10-19T22:53:20.374Z,68.78
2022-10-19T22:55:46.904Z,68.79
2022-10-19T22:58:13.522Z,68.83
2022-10-19T23:00:40.075Z,69.58
2022-10-19T23:03:06.642Z,69.39
2022-10-19T23:05:33.171Z,69.40
2022-10-19T23:07:59.655Z,69.38
2022-10-19T23:10:26.537Z,69.51
2022-10-19T23:12:53.673Z,69.50
2022-10-19T23:15:21.219Z,69.18
2022-10-19T23:17:48.046Z,69.29
2022-10-19T23:20:14.942Z,69.24
2022-10-19T23:22:41.421Z,69.09
2022-10-19T23:25:08.575Z,69.18
2022-10-19T23:27:35.441Z,69.30
2022-10-19T23:30:03.315Z,69.73
2022-10-19T23:32:29.892Z,69.29
2022-10-19T23:34:56.772Z,69.32
2022-10-19T23:37:23.363Z,68.78
2022-10-19T23:39:50.184Z,69.12
2022-10-19T23:42:16.719Z,69.08
2022-10-19T23:44:43.294Z,68.82
2022-10-19T23:47:09.873Z,68.78
2022-10-19T23:49:36.524Z,68.58
2022-10-19T23:52:03.094Z,68.77
2022-10-19T23:54:29.618Z,68.29
2022-10-19T23:56:56.137Z,68.22
2022-10-19T23:59:22.838Z,68.00
